createdAt,value
2022-08-22T00:06:09.202Z,20.7
2022-08-22T00:36:26.306Z,20.65
2022-08-22T01:06:45.102Z,20.6
2022-08-22T01:37:03.365Z,20.3
2022-08-22T02:37:38.393Z,19.85
2022-08-22T03:07:55.463Z,20.1
2022-08-22T03:38:13.586Z,19.7
2022-08-22T04:08:34.769Z,19.35
2022-08-22T04:38:51.579Z,18.9
2022-08-22T05:09:14.132Z,19.1
2022-08-22T05:39:35.898Z,20.45
2022-08-22T06:09:56.636Z,21.15
2022-08-22T06:40:19.967Z,23.7
2022-08-22T07:10:43.228Z,24.8
2022-08-22T07:41:05.319Z,24.85
2022-08-22T08:11:24.723Z,27.1
2022-08-22T08:41:59.519Z,30.65
2022-08-22T09:12:16.709Z,31.15
2022-08-22T09:42:45.027Z,32.55
2022-08-22T10:13:10.372Z,32.45
2022-08-22T10:43:32.247Z,34.2
2022-08-22T11:13:52.957Z,35.7
2022-08-22T11:44:14.383Z,34.7
2022-08-22T12:14:21.340Z,30.65
2022-08-22T12:44:30.866Z,30.35
2022-08-22T13:14:59.788Z,29.2
2022-08-22T13:45:29.694Z,31.25
2022-08-22T14:45:54.265Z,29.7
2022-08-22T15:16:09.441Z,28.75
2022-08-22T15:46:26.079Z,28.55
2022-08-22T16:16:43.304Z,28.3
2022-08-22T16:47:00.490Z,27.95
2022-08-22T17:17:18.220Z,27.55
2022-08-22T17:47:34.409Z,27.15
2022-08-22T18:48:08.529Z,26.45
2022-08-22T19:18:27.338Z,26.05
2022-08-22T19:48:44.551Z,25.45
2022-08-22T20:19:07.111Z,24.95
2022-08-22T20:49:22.569Z,24.65
2022-08-22T21:19:40.182Z,24.35
2022-08-22T21:49:57.999Z,24
2022-08-22T22:20:14.523Z,23.75
2022-08-22T22:50:35.193Z,23.45
2022-08-22T23:20:52.524Z,23.1
2022-08-22T23:51:08.713Z,22.55
